createdAt,value
2023-01-22T00:02:55.287Z,25.97
2023-01-22T00:05:57.066Z,17.53
2023-01-22T00:09:03.639Z,18.13
2023-01-22T00:12:05.669Z,18.97
2023-01-22T00:15:07.947Z,22.10
2023-01-22T00:18:09.855Z,19.47
2023-01-22T00:21:12.991Z,19.83
2023-01-22T00:24:14.858Z,18.33
2023-01-22T00:27:16.615Z,20.13
2023-01-22T00:30:18.742Z,16.83
2023-01-22T00:33:20.588Z,15.67
2023-01-22T00:36:22.915Z,23.90
2023-01-22T00:39:24.754Z,16.07
2023-01-22T00:42:26.779Z,19.13
2023-01-22T00:45:28.739Z,18.80
2023-01-22T00:48:31.042Z,25.83
2023-01-22T00:51:33.582Z,17.87
2023-01-22T00:54:35.351Z,14.90
2023-01-22T00:57:37.222Z,16.87
2023-01-22T01:00:39.222Z,16.73
2023-01-22T01:03:41.310Z,15.83
2023-01-22T01:06:43.126Z,14.73
2023-01-22T01:09:47.820Z,17.27
2023-01-22T01:12:49.591Z,15.87
2023-01-22T01:16:04.606Z,20.73
2023-01-22T01:19:10.011Z,15.47
2023-01-22T01:22:11.727Z,13.93
2023-01-22T01:25:14.316Z,16.70
2023-01-22T01:28:17.505Z,13.83
2023-01-22T01:31:21.388Z,15.77
2023-01-22T01:34:23.833Z,15.43
2023-01-22T01:37:25.535Z,13.20
2023-01-22T01:40:27.322Z,14.50
2023-01-22T01:43:30.535Z,14.40
2023-01-22T01:46:35.782Z,14.40
2023-01-22T01:49:44.937Z,12.93
2023-01-22T01:52:46.942Z,11.83
2023-01-22T01:55:49.551Z,12.07
2023-01-22T01:58:56.624Z,12.67
2023-01-22T02:01:58.377Z,11.07
2023-01-22T02:05:00.174Z,9.83
2023-01-22T02:08:02.420Z,9.97
2023-01-22T02:11:05.270Z,12.80
2023-01-22T02:14:17.985Z,9.23
2023-01-22T02:17:21.998Z,10.30
2023-01-22T02:20:26.086Z,12.80
2023-01-22T02:23:31.280Z,9.17
2023-01-22T02:26:33.545Z,9.47
2023-01-22T02:29:35.384Z,10.17
2023-01-22T02:32:37.150Z,11.00
2023-01-22T02:35:39.115Z,9.97
2023-01-22T02:38:40.928Z,10.90
2023-01-22T02:41:42.673Z,9.07
2023-01-22T02:44:45.992Z,8.67
2023-01-22T02:47:48.304Z,13.63
2023-01-22T02:50:50.050Z,8.60
2023-01-22T02:53:52.284Z,11.17
2023-01-22T02:56:54.218Z,9.43
2023-01-22T02:59:55.979Z,10.40
2023-01-22T03:02:58.105Z,10.90
2023-01-22T03:05:59.820Z,9.87
2023-01-22T03:09:01.575Z,14.97
2023-01-22T03:12:07.611Z,13.37
2023-01-22T03:15:30.398Z,10.63
2023-01-22T03:18:51.329Z,11.00
2023-01-22T03:21:53.904Z,10.97
2023-01-22T03:24:58.526Z,9.87
2023-01-22T03:28:08.653Z,12.20
2023-01-22T03:31:12.995Z,12.73
2023-01-22T03:34:16.670Z,9.63
2023-01-22T03:37:19.202Z,13.27
2023-01-22T03:40:24.780Z,13.50
2023-01-22T03:43:28.537Z,11.43
2023-01-22T03:46:31.752Z,12.00
2023-01-22T03:49:33.557Z,10.67
2023-01-22T03:52:35.330Z,12.07
2023-01-22T03:55:37.978Z,10.10
2023-01-22T03:58:40.529Z,9.90
2023-01-22T04:01:42.558Z,9.77
2023-01-22T04:04:44.623Z,13.03
2023-01-22T04:07:49.198Z,9.87
2023-01-22T04:10:52.104Z,11.10
2023-01-22T04:13:55.684Z,13.20
2023-01-22T04:16:57.944Z,13.60
2023-01-22T04:20:18.685Z,10.93
2023-01-22T04:23:53.011Z,12.00
2023-01-22T04:26:55.037Z,14.13
2023-01-22T04:29:56.859Z,12.43
2023-01-22T04:32:59.571Z,15.27
2023-01-22T04:36:06.825Z,9.70
2023-01-22T04:39:08.595Z,14.13
2023-01-22T04:42:11.323Z,12.77
2023-01-22T04:45:13.316Z,10.83
2023-01-22T04:48:16.093Z,12.93
2023-01-22T04:51:19.106Z,8.73
2023-01-22T04:54:20.976Z,16.23
2023-01-22T04:57:23.026Z,14.40
2023-01-22T05:00:27.391Z,14.23
2023-01-22T05:03:29.458Z,13.30
2023-01-22T05:06:32.020Z,9.77
2023-01-22T05:09:34.723Z,10.93
2023-01-22T05:12:36.774Z,9.33
2023-01-22T05:15:38.669Z,13.23
2023-01-22T05:18:44.608Z,12.63
2023-01-22T05:21:46.814Z,10.80
2023-01-22T05:24:51.787Z,10.87
2023-01-22T05:27:54.219Z,10.87
2023-01-22T05:31:15.093Z,9.03
2023-01-22T05:34:29.448Z,8.43
2023-01-22T05:37:32.512Z,8.30
2023-01-22T05:40:35.186Z,11.37
2023-01-22T05:43:38.394Z,8.27
2023-01-22T05:46:42.969Z,12.40
2023-01-22T05:49:53.718Z,13.43
2023-01-22T05:52:56.341Z,14.10
2023-01-22T05:56:05.918Z,10.50
2023-01-22T05:59:12.921Z,9.40
2023-01-22T06:02:15.875Z,9.57
2023-01-22T06:05:19.561Z,7.30
2023-01-22T06:08:28.531Z,12.40
2023-01-22T06:11:30.336Z,9.87
2023-01-22T06:14:32.560Z,11.17
2023-01-22T06:17:35.879Z,9.07
2023-01-22T06:20:37.726Z,11.13
2023-01-22T06:23:42.338Z,9.37
2023-01-22T06:26:44.355Z,9.27
2023-01-22T06:29:48.782Z,10.60
2023-01-22T06:32:54.545Z,8.50
2023-01-22T06:35:56.682Z,8.87
2023-01-22T06:38:58.887Z,8.37
2023-01-22T06:42:12.773Z,11.83
2023-01-22T06:45:15.384Z,8.20
2023-01-22T06:48:21.999Z,6.40
2023-01-22T06:51:23.837Z,8.23
2023-01-22T06:54:25.758Z,7.00
2023-01-22T06:57:28.627Z,16.00
2023-01-22T07:00:33.064Z,8.47
2023-01-22T07:03:34.836Z,9.40
2023-01-22T07:06:36.596Z,8.00
2023-01-22T07:09:38.318Z,7.30
2023-01-22T07:12:40.475Z,7.90
2023-01-22T07:15:42.725Z,9.50
2023-01-22T07:18:44.437Z,9.53
2023-01-22T07:21:46.123Z,9.20
2023-01-22T07:24:47.841Z,7.80
2023-01-22T07:27:49.524Z,7.37
2023-01-22T07:30:51.271Z,10.80
2023-01-22T07:33:53.000Z,8.90
2023-01-22T07:36:54.707Z,8.60
2023-01-22T07:39:56.402Z,10.97
2023-01-22T07:42:58.197Z,7.33
2023-01-22T07:46:04.413Z,8.60
2023-01-22T07:49:06.759Z,6.97
2023-01-22T07:52:08.482Z,6.97
2023-01-22T07:55:10.209Z,8.23
2023-01-22T07:58:12.138Z,8.93
2023-01-22T08:01:14.044Z,9.00
2023-01-22T08:04:15.881Z,9.70
2023-01-22T08:07:18.210Z,9.17
2023-01-22T08:10:20.423Z,9.47
2023-01-22T08:13:22.338Z,9.57
2023-01-22T08:16:24.174Z,12.03
2023-01-22T08:19:26.078Z,9.20
2023-01-22T08:22:27.785Z,8.27
2023-01-22T08:25:29.936Z,10.40
2023-01-22T08:28:32.022Z,7.57
2023-01-22T08:31:34.367Z,10.67
2023-01-22T08:34:36.129Z,9.57
2023-01-22T08:37:37.877Z,11.27
2023-01-22T08:40:39.535Z,9.57
2023-01-22T08:43:41.428Z,7.53
2023-01-22T08:46:43.274Z,10.03
2023-01-22T08:49:45.035Z,11.83
2023-01-22T08:52:46.782Z,9.37
2023-01-22T08:55:50.007Z,6.53
2023-01-22T08:58:52.604Z,8.67
2023-01-22T09:01:54.391Z,9.47
2023-01-22T09:04:56.126Z,8.57
2023-01-22T09:07:57.836Z,9.97
2023-01-22T09:10:59.551Z,7.67
2023-01-22T09:14:01.267Z,11.40
2023-01-22T09:17:02.982Z,9.97
2023-01-22T09:20:05.109Z,8.20
2023-01-22T09:23:07.354Z,7.40
2023-01-22T09:26:09.577Z,12.67
2023-01-22T09:29:11.364Z,8.33
2023-01-22T09:32:13.142Z,10.67
2023-01-22T09:35:16.548Z,7.30
2023-01-22T09:38:18.749Z,7.30
2023-01-22T09:41:35.273Z,8.10
2023-01-22T09:44:40.658Z,9.10
2023-01-22T09:47:52.743Z,8.43
2023-01-22T09:50:54.625Z,7.77
2023-01-22T09:53:59.705Z,12.17
2023-01-22T09:57:04.734Z,9.43
2023-01-22T10:00:37.740Z,8.23
2023-01-22T10:03:43.428Z,8.13
2023-01-22T10:06:47.605Z,9.97
2023-01-22T10:09:55.591Z,8.13
2023-01-22T10:13:18.011Z,7.10
2023-01-22T10:16:19.818Z,11.60
2023-01-22T10:19:29.235Z,13.00
2023-01-22T10:22:30.970Z,11.57
2023-01-22T10:25:33.768Z,9.83
2023-01-22T10:28:35.799Z,15.20
2023-01-22T10:31:41.107Z,11.40
2023-01-22T10:34:43.010Z,17.53
2023-01-22T10:37:47.152Z,9.80
2023-01-22T10:40:54.731Z,13.53
2023-01-22T10:43:56.441Z,13.73
2023-01-22T10:47:09.670Z,13.97
2023-01-22T10:50:16.551Z,11.23
2023-01-22T10:53:24.993Z,11.47
2023-01-22T10:56:32.653Z,10.10
2023-01-22T10:59:34.831Z,8.17
2023-01-22T11:02:40.801Z,13.50
2023-01-22T11:05:46.370Z,9.80
2023-01-22T11:09:21.028Z,13.23
2023-01-22T11:12:26.894Z,12.83
2023-01-22T11:15:55.492Z,14.20
2023-01-22T11:19:12.883Z,14.33
2023-01-22T11:22:28.796Z,13.43
2023-01-22T11:25:42.995Z,9.53
2023-01-22T11:29:13.396Z,10.90
2023-01-22T11:32:39.124Z,14.70
2023-01-22T11:36:11.841Z,10.57
2023-01-22T11:39:39.887Z,12.87
2023-01-22T11:42:50.692Z,12.17
2023-01-22T11:46:14.336Z,11.30
2023-01-22T11:50:00.134Z,12.47
2023-01-22T11:53:11.395Z,13.77
2023-01-22T11:56:25.370Z,12.07
2023-01-22T11:59:52.003Z,10.80
2023-01-22T12:03:08.792Z,13.93
2023-01-22T12:06:19.423Z,15.10
2023-01-22T12:09:27.260Z,16.30
2023-01-22T12:12:48.995Z,14.73
2023-01-22T12:15:57.293Z,15.07
2023-01-22T12:19:07.912Z,11.87
2023-01-22T12:22:25.347Z,12.53
2023-01-22T12:26:01.893Z,17.30
2023-01-22T12:29:41.411Z,14.53
2023-01-22T12:32:48.520Z,14.63
2023-01-22T12:35:52.897Z,10.37
2023-01-22T12:38:59.349Z,16.33
2023-01-22T12:42:13.388Z,14.40
2023-01-22T12:45:19.918Z,15.97
2023-01-22T12:48:24.468Z,15.47
2023-01-22T12:51:38.951Z,14.73
2023-01-22T12:54:40.731Z,12.93
2023-01-22T12:57:42.715Z,15.37
2023-01-22T13:00:44.502Z,12.97
2023-01-22T13:03:58.077Z,21.13
2023-01-22T13:07:24.116Z,20.07
2023-01-22T13:10:29.898Z,14.63
2023-01-22T13:13:37.516Z,12.10
2023-01-22T13:16:39.573Z,13.93
2023-01-22T13:19:44.731Z,13.57
2023-01-22T13:22:46.968Z,15.67
2023-01-22T13:25:54.755Z,20.23
2023-01-22T13:29:06.241Z,16.27
2023-01-22T13:32:16.900Z,16.60
2023-01-22T13:35:20.016Z,13.53
2023-01-22T13:38:29.157Z,18.13
2023-01-22T13:41:38.453Z,15.57
2023-01-22T13:44:42.978Z,15.73
2023-01-22T13:47:45.181Z,12.07
2023-01-22T13:50:54.162Z,15.27
2023-01-22T13:53:56.062Z,16.30
2023-01-22T13:56:57.855Z,13.67
2023-01-22T14:00:01.742Z,18.30
2023-01-22T14:03:18.257Z,13.87
2023-01-22T14:06:19.954Z,14.23
2023-01-22T14:09:33.429Z,16.80
2023-01-22T14:12:35.147Z,18.63
2023-01-22T14:15:38.401Z,16.13
2023-01-22T14:18:41.106Z,17.10
2023-01-22T14:21:42.876Z,19.97
2023-01-22T14:24:44.627Z,18.37
2023-01-22T14:27:49.745Z,18.30
2023-01-22T14:30:51.956Z,15.03
2023-01-22T14:33:53.707Z,17.70
2023-01-22T14:36:55.540Z,12.53
2023-01-22T14:39:57.296Z,16.50
2023-01-22T14:43:02.985Z,11.93
2023-01-22T14:46:08.133Z,14.00
2023-01-22T14:49:09.936Z,12.20
2023-01-22T14:52:11.608Z,15.37
2023-01-22T14:55:13.839Z,15.13
2023-01-22T14:58:16.223Z,12.20
2023-01-22T15:01:20.713Z,19.57
2023-01-22T15:04:22.454Z,14.13
2023-01-22T15:07:24.209Z,14.77
2023-01-22T15:10:25.939Z,12.73
2023-01-22T15:13:27.669Z,20.77
2023-01-22T15:16:29.414Z,17.67
2023-01-22T15:19:40.718Z,15.00
2023-01-22T15:22:43.056Z,18.80
2023-01-22T15:25:44.778Z,15.47
2023-01-22T15:28:46.493Z,15.67
2023-01-22T15:31:48.277Z,17.73
2023-01-22T15:34:50.010Z,16.37
2023-01-22T15:37:51.719Z,19.70
2023-01-22T15:41:23.141Z,15.47
2023-01-22T15:44:24.892Z,14.07
2023-01-22T15:47:26.605Z,17.90
2023-01-22T15:50:28.396Z,19.40
2023-01-22T15:53:30.115Z,23.17
2023-01-22T15:56:34.169Z,25.83
2023-01-22T15:59:38.749Z,23.70
2023-01-22T16:02:41.122Z,22.00
2023-01-22T16:05:42.821Z,19.53
2023-01-22T16:08:46.129Z,16.63
2023-01-22T16:11:47.877Z,15.37
2023-01-22T16:14:49.659Z,19.50
2023-01-22T16:17:51.443Z,21.00
2023-01-22T16:20:53.626Z,22.37
2023-01-22T16:23:58.633Z,18.77
2023-01-22T16:27:00.416Z,21.27
2023-01-22T16:30:02.443Z,24.10
2023-01-22T16:33:18.003Z,16.50
2023-01-22T16:36:21.952Z,22.60
2023-01-22T16:39:26.596Z,25.90
2023-01-22T16:42:28.309Z,25.27
2023-01-22T16:45:30.157Z,24.50
2023-01-22T16:48:31.910Z,24.27
2023-01-22T16:51:39.606Z,21.57
2023-01-22T16:54:42.599Z,22.40
2023-01-22T16:57:44.253Z,18.57
2023-01-22T17:00:47.308Z,20.63
2023-01-22T17:03:49.044Z,24.77
2023-01-22T17:06:53.188Z,20.17
2023-01-22T17:09:55.036Z,17.10
2023-01-22T17:12:57.311Z,20.23
2023-01-22T17:15:59.006Z,20.70
2023-01-22T17:19:00.975Z,20.53
2023-01-22T17:22:03.249Z,25.10
2023-01-22T17:25:05.563Z,20.03
2023-01-22T17:28:08.208Z,25.43
2023-01-22T17:31:15.584Z,19.13
2023-01-22T17:34:18.323Z,20.60
2023-01-22T17:37:20.122Z,20.80
2023-01-22T17:40:22.110Z,23.30
2023-01-22T17:43:24.457Z,23.90
2023-01-22T17:46:29.074Z,21.70
2023-01-22T17:49:32.457Z,22.50
2023-01-22T17:52:34.173Z,23.17
2023-01-22T17:55:37.867Z,29.53
2023-01-22T17:58:44.405Z,15.87
2023-01-22T18:01:46.768Z,19.03
2023-01-22T18:04:48.490Z,18.33
2023-01-22T18:07:50.168Z,22.73
2023-01-22T18:10:52.797Z,24.23
2023-01-22T18:14:00.131Z,20.67
2023-01-22T18:17:02.209Z,33.30
2023-01-22T18:20:06.453Z,29.07
2023-01-22T18:23:08.143Z,26.93
2023-01-22T18:26:10.517Z,32.53
2023-01-22T18:29:12.379Z,23.37
2023-01-22T18:32:14.181Z,24.03
2023-01-22T18:35:16.009Z,30.70
2023-01-22T18:38:25.030Z,18.77
2023-01-22T18:41:27.329Z,29.87
2023-01-22T18:44:29.175Z,20.27
2023-01-22T18:47:33.856Z,23.97
2023-01-22T18:50:35.574Z,29.73
2023-01-22T18:53:37.601Z,26.60
2023-01-22T18:56:39.402Z,25.77
2023-01-22T18:59:41.198Z,27.83
2023-01-22T19:02:43.161Z,26.80
2023-01-22T19:05:44.884Z,26.10
2023-01-22T19:08:47.796Z,19.70
2023-01-22T19:11:52.146Z,28.30
2023-01-22T19:14:54.056Z,26.70
2023-01-22T19:17:55.769Z,25.80
2023-01-22T19:21:03.795Z,22.13
2023-01-22T19:24:06.309Z,29.23
2023-01-22T19:27:08.371Z,20.93
2023-01-22T19:30:10.846Z,26.70
2023-01-22T19:33:12.523Z,33.70
2023-01-22T19:36:14.608Z,26.30
2023-01-22T19:39:17.092Z,23.93
2023-01-22T19:42:18.835Z,28.00
2023-01-22T19:45:20.849Z,28.83
2023-01-22T19:48:25.375Z,26.70
2023-01-22T19:51:27.391Z,22.10
2023-01-22T19:54:29.195Z,18.70
2023-01-22T19:57:33.111Z,29.63
2023-01-22T20:00:34.812Z,23.23
2023-01-22T20:03:36.513Z,20.43
2023-01-22T20:06:39.262Z,24.13
2023-01-22T20:09:41.073Z,19.60
2023-01-22T20:12:43.299Z,29.97
2023-01-22T20:15:45.019Z,20.23
2023-01-22T20:18:48.094Z,25.03
2023-01-22T20:21:49.838Z,23.77
2023-01-22T20:24:51.608Z,25.17
2023-01-22T20:27:53.326Z,17.93
2023-01-22T20:30:59.938Z,26.63
2023-01-22T20:34:03.068Z,21.50
2023-01-22T20:37:04.839Z,24.20
2023-01-22T20:40:07.400Z,19.70
2023-01-22T20:43:09.243Z,28.13
2023-01-22T20:46:17.292Z,20.77
2023-01-22T20:49:19.036Z,29.70
2023-01-22T20:52:20.801Z,24.60
2023-01-22T20:55:24.633Z,24.13
2023-01-22T20:58:27.422Z,25.27
2023-01-22T21:01:29.835Z,29.87
2023-01-22T21:04:31.682Z,20.93
2023-01-22T21:07:33.659Z,18.73
2023-01-22T21:10:35.353Z,24.30
2023-01-22T21:13:37.286Z,23.87
2023-01-22T21:16:40.483Z,21.80
2023-01-22T21:19:44.301Z,20.50
2023-01-22T21:22:46.142Z,20.50
2023-01-22T21:25:47.896Z,26.40
2023-01-22T21:29:02.064Z,26.23
2023-01-22T21:32:04.026Z,19.30
2023-01-22T21:35:06.536Z,25.70
2023-01-22T21:38:08.245Z,21.27
2023-01-22T21:41:12.577Z,19.63
2023-01-22T21:44:36.340Z,22.50
2023-01-22T21:47:38.063Z,20.67
2023-01-22T21:50:43.713Z,22.50
2023-01-22T21:53:45.449Z,22.77
2023-01-22T21:56:47.742Z,26.67
2023-01-22T21:59:49.459Z,19.10
2023-01-22T22:02:52.666Z,20.40
2023-01-22T22:06:01.937Z,30.23
2023-01-22T22:09:07.194Z,17.20
2023-01-22T22:12:10.081Z,29.83
2023-01-22T22:15:12.301Z,18.00
2023-01-22T22:18:14.021Z,24.50
2023-01-22T22:21:16.093Z,21.17
2023-01-22T22:24:18.787Z,24.60
2023-01-22T22:27:20.596Z,28.13
2023-01-22T22:30:22.471Z,25.47
2023-01-22T22:33:24.233Z,18.80
2023-01-22T22:36:27.772Z,21.77
2023-01-22T22:39:29.471Z,28.80
2023-01-22T22:42:31.187Z,22.93
2023-01-22T22:45:37.156Z,26.67
2023-01-22T22:48:38.890Z,20.23
2023-01-22T22:51:42.514Z,20.87
2023-01-22T22:54:44.222Z,23.80
2023-01-22T22:57:48.588Z,26.80
2023-01-22T23:00:50.376Z,23.87
2023-01-22T23:03:53.516Z,23.70
2023-01-22T23:06:55.428Z,17.13
2023-01-22T23:09:57.309Z,20.97
2023-01-22T23:13:01.594Z,31.43
2023-01-22T23:16:10.220Z,18.53
2023-01-22T23:19:18.062Z,17.17
2023-01-22T23:22:19.767Z,28.20
2023-01-22T23:25:21.631Z,19.23
2023-01-22T23:28:23.369Z,20.70
2023-01-22T23:31:27.063Z,21.10
2023-01-22T23:34:28.920Z,19.63
2023-01-22T23:37:30.679Z,23.13
2023-01-22T23:40:33.704Z,17.80
2023-01-22T23:43:36.003Z,18.23
2023-01-22T23:46:38.701Z,23.50
2023-01-22T23:49:40.567Z,17.47
2023-01-22T23:52:43.942Z,18.00
2023-01-22T23:55:45.738Z,18.80
2023-01-22T23:58:47.504Z,20.93
